METAR Data
IDs: Format: Raw Decoded Include TAF

Data at: 1809 UTC 25 Mar 2019

KRWV 251755Z AUTO 36009KT 10SM SCT021 SCT030 BKN036 24/20 A3014 RMK AO2 T02420198 10250 20195 60002
KRWV 251735Z AUTO 34011KT 10SM SCT019 SCT024 BKN033 25/19 A3014 RMK AO2 T02460195
KRWV 251715Z AUTO 28005KT 10SM SCT013 SCT019 BKN033 24/20 A3014 RMK AO2 T02420196
KRWV 251655Z AUTO 28005KT 7SM SCT012 SCT029 BKN065 24/20 A3014 RMK AO2 T02350205
KRWV 251635Z AUTO 26003KT 10SM SCT016 BKN044 OVC055 22/20 A3015 RMK AO2 T02240201
KRWV 251615Z AUTO 23006KT 7SM SCT010 BKN014 OVC041 22/20 A3015 RMK AO2 T02150198
KRWV 251555Z AUTO 23007KT 7SM BKN008 OVC018 21/20 A3015 RMK AO2 T02120197
KRWV 251535Z AUTO 25006KT 7SM BKN008 OVC020 21/20 A3015 RMK AO2 T02140197
KRWV 251515Z AUTO 25005KT 5SM BR BKN006 OVC038 21/20 A3013 RMK AO2 T02120199
KRWV 251455Z AUTO 23005KT 4SM BR BKN004 BKN018 OVC038 20/20 A3013 RMK AO2 P0001 T02050197 60002
KRWV 251435Z AUTO 00000KT 4SM -DZ BR BKN004 BKN015 OVC026 20/19 A3013 RMK AO2 P0001 T01990193
KRWV 251415Z AUTO 00000KT 2 1/2SM DZ BR SCT002 BKN024 OVC034 20/19 A3012 RMK AO2 T01970192
KRWV 251355Z AUTO 00000KT 2SM DZ BR BKN013 OVC017 20/19 A3011 RMK AO2 P0001 T01960191
KRWV 251335Z AUTO 00000KT 2SM DZ BR OVC011 20/19 A3011 RMK AO2 T01960190
KRWV 251315Z AUTO 00000KT 1 1/2SM -RA BR SCT008 OVC013 20/19 A3010 RMK AO2 VIS 1V2 T01960189
KRWV 251255Z AUTO 00000KT 2 1/2SM BR OVC013 20/19 A3009 RMK AO2 T01970187
KRWV 251235Z AUTO 00000KT 7SM OVC013 20/18 A3008 RMK AO2 T02010184
KRWV 251215Z AUTO 21003KT 10SM OVC015 20/18 A3007 RMK AO2 T02010184
KRWV 251155Z AUTO 22003KT 10SM OVC015 20/18 A3006 RMK AO2 T02030184 10206 20202
KRWV 251135Z AUTO 00000KT 10SM OVC015 20/18 A3005 RMK AO2 T02030183
KRWV 251115Z AUTO 22004KT 10SM OVC017 20/18 A3005 RMK AO2 T02030183
KRWV 251055Z AUTO 23005KT 10SM OVC015 20/18 A3004 RMK AO2 T02040184
KRWV 251035Z AUTO 22005KT 10SM OVC015 21/18 A3004 RMK AO2 T02050183
KRWV 251015Z AUTO 22007KT 10SM OVC013 21/18 A3003 RMK AO2 T02050183
KRWV 250955Z AUTO 21009KT 10SM OVC013 20/18 A3003 RMK AO2 T02050183
KRWV 250935Z AUTO 22009KT 10SM OVC013 21/18 A3003 RMK AO2 T02060183
KRWV 250915Z AUTO 21013G19KT 10SM OVC011 20/18 A3003 RMK AO2 T02050185
KRWV 250855Z AUTO 21011KT 10SM OVC011 20/19 A3003 RMK AO2 T02050185
KRWV 250835Z AUTO 21011G15KT 10SM OVC011 20/19 A3003 RMK AO2 T02040186
KRWV 250815Z AUTO 20014G20KT 10SM OVC011 20/19 A3003 RMK AO2 T02030187
KRWV 250755Z AUTO 19011G18KT 10SM OVC011 20/19 A3004 RMK AO2 LTG DSNT N T02030187
KRWV 250735Z AUTO 20009KT 10SM OVC011 20/19 A3004 RMK AO2 T02050188
KRWV 250715Z AUTO 20011KT 10SM OVC011 20/19 A3004 RMK AO2 T02040188
KRWV 250655Z AUTO 20008KT 10SM OVC011 20/19 A3005 RMK AO2 T02040188
KRWV 250635Z AUTO 19009KT 10SM OVC013 20/19 A3006 RMK AO2 T02040188
KRWV 250615Z AUTO 19008KT 10SM OVC013 20/19 A3006 RMK AO2 T02040188
KRWV 250555Z AUTO 20008KT 10SM OVC011 20/19 A3007 RMK AO2 T02050188 10253 20195
KRWV 250535Z AUTO 20011G14KT 10SM OVC011 20/19 A3006 RMK AO2 T02040189
KRWV 250515Z AUTO 18007KT 10SM OVC011 20/19 A3007 RMK AO2 T02030188
KRWV 250455Z AUTO 18007KT 10SM OVC011 20/19 A3007 RMK AO2 T02010187
KRWV 250435Z AUTO 19008KT 10SM OVC013 20/19 A3007 RMK AO2 T02010187
KRWV 250415Z AUTO 18005KT 10SM BKN013 20/18 A3006 RMK AO2 T01980184
KRWV 250355Z AUTO 17004KT 10SM CLR 20/18 A3006 RMK AO2 T01990183
KRWV 250335Z AUTO 18006KT 10SM CLR 20/18 A3005 RMK AO2 T02040184
KRWV 250315Z AUTO 18009KT 10SM CLR 21/18 A3004 RMK AO2 T02060185
KRWV 250255Z AUTO 17008KT 10SM CLR 21/19 A3004 RMK AO2 T02100185
KRWV 250235Z AUTO 17008KT 10SM CLR 21/19 A3003 RMK AO2 T02120185
KRWV 250215Z AUTO 17007KT 10SM CLR 21/18 A3002 RMK AO2 T02140185
KRWV 250155Z AUTO 17010KT 10SM CLR 22/19 A3001 RMK AO2 T02190185
KRWV 250135Z AUTO 17007KT 10SM CLR 22/19 A3000 RMK AO2 LTG DSNT NW T02230185
KRWV 250115Z AUTO 16007KT 10SM CLR 22/18 A2999 RMK AO2 T02220185
KRWV 250055Z AUTO 16007KT 10SM CLR 23/18 A2999 RMK AO2 T02270185
KRWV 250035Z AUTO 16009KT 10SM CLR 24/19 A2998 RMK AO2 T02360186
KRWV 250015Z AUTO 17009KT 10SM SCT043 BKN050 25/18 A2999 RMK AO2 T02460183
KRWV 242355Z AUTO 16009KT 10SM SCT042 BKN050 25/19 A2999 RMK AO2 T02540189 10275 20230 402750168
KRWV 242335Z AUTO 18012G15KT 10SM SCT042 SCT055 26/18 A2999 RMK AO2 T02550182
KRWV 242315Z AUTO 18008KT 10SM SCT043 SCT055 26/19 A2999 RMK AO2 T02580186
KRWV 242255Z AUTO 18010G16KT 10SM BKN043 BKN055 26/18 A3000 RMK AO2 T02640181
KRWV 242235Z AUTO 20007KT 10SM BKN043 BKN050 27/18 A3000 RMK AO2 T02730183
KRWV 242215Z AUTO 18008KT 10SM SCT045 SCT050 27/18 A3000 RMK AO2 T02710179
KRWV 242155Z AUTO 20008KT 10SM SCT045 SCT050 27/18 A3000 RMK AO2 T02720181
KRWV 242135Z AUTO 18009KT 10SM BKN045 BKN050 27/18 A3001 RMK AO2 T02720179
KRWV 242115Z AUTO 21009G21KT 10SM BKN043 OVC049 27/18 A3002 RMK AO2 T02730177
KRWV 242055Z AUTO 18009KT 10SM BKN040 BKN049 26/18 A3002 RMK AO2 T02600181
KRWV 242035Z AUTO 20008G14KT 10SM BKN040 BKN049 26/18 A3003 RMK AO2 T02640181
KRWV 242015Z AUTO 20011KT 10SM BKN047 26/18 A3004 RMK AO2 T02610180
KRWV 241955Z AUTO 23010KT 10SM SCT035 OVC045 26/18 A3005 RMK AO2 T02570181
KRWV 241935Z AUTO 21012G18KT 10SM SCT037 OVC043 25/17 A3005 RMK AO2 T02500172
KRWV 241915Z AUTO 20013G16KT 10SM SCT031 OVC043 25/18 A3006 RMK AO2 T02500176
KRWV 241855Z AUTO 19011KT 10SM BKN034 OVC041 25/18 A3006 RMK AO2 T02490181
KRWV 241835Z AUTO 19012G16KT 10SM SCT025 OVC038 24/18 A3007 RMK AO2 T02400179
KRWV 241815Z AUTO 21009G17KT 10SM SCT025 OVC033 24/18 A3009 RMK AO2 T02360183
KRWV 241755Z AUTO 21009KT 10SM SCT023 OVC033 23/18 A3009 RMK AO2 T02290179 10236 20172
KRWV 241735Z AUTO 21008KT 10SM BKN021 OVC029 23/18 A3009 RMK AO2 T02290180
KRWV 241715Z AUTO 20013KT 10SM BKN019 BKN024 BKN029 23/18 A3010 RMK AO2 T02260180
KRWV 241655Z AUTO 19011G16KT 10SM BKN019 OVC024 22/18 A3010 RMK AO2 T02190181
KRWV 241635Z AUTO 20013KT 10SM BKN016 OVC021 22/18 A3011 RMK AO2 T02170180
KRWV 241615Z AUTO 22009KT 10SM BKN014 OVC021 21/18 A3012 RMK AO2 T02110181
KRWV 241555Z AUTO 21009KT 10SM OVC013 21/18 A3012 RMK AO2
KRWV 241535Z AUTO 20008KT 10SM OVC011 20/18 A3012 RMK AO2
KRWV 241515Z AUTO 20009KT 10SM BKN011 OVC017 20/18 A3012 RMK AO2 T01970176
KRWV 241455Z AUTO 20009KT 10SM BKN011 OVC018 20/18 A3012 RMK AO2 T01970177
KRWV 241435Z AUTO 19007KT 10SM BKN007 BKN013 OVC021 19/18 A3012 RMK AO2 T01920177
KRWV 241415Z AUTO 18006KT 10SM OVC007 19/17 A3011 RMK AO2 T01860173
KRWV 241355Z AUTO 17007KT 10SM OVC007 18/17 A3010 RMK AO2 T01830172
KRWV 241335Z AUTO 16005KT 10SM OVC007 18/17 A3010 RMK AO2 T01790168
KRWV 241315Z AUTO 16006KT 10SM BKN009 OVC012 18/17 A3010 RMK AO2 T01770166
KRWV 241255Z AUTO 15005KT 10SM OVC010 18/17 A3009 RMK AO2 T01760165
KRWV 241235Z AUTO 16006KT 10SM BKN010 OVC016 17/16 A3009 RMK AO2 T01740164
KRWV 241215Z AUTO 16006KT 10SM SCT008 BKN020 OVC027 17/16 A3008 RMK AO2 T01720162
KRWV 241155Z AUTO 15006KT 10SM BKN008 BKN018 OVC028 17/16 A3008 RMK AO2 T01720161 10174 20168
KRWV 241135Z AUTO 17005KT 10SM OVC008 17/16 A3008 RMK AO2 T01730162
KRWV 241115Z AUTO 16005KT 10SM OVC008 17/16 A3008 RMK AO2 T01730161
KRWV 241055Z AUTO 17006KT 10SM OVC008 17/16 A3008 RMK AO2 T01720160
KRWV 241035Z AUTO 17006KT 10SM OVC008 17/16 A3008 RMK AO2 T01720159
KRWV 241015Z AUTO 16005KT 10SM OVC010 17/16 A3008 RMK AO2 T01720158
KRWV 240955Z AUTO 16005KT 10SM OVC010 17/16 A3007 RMK AO2 T01710157
KRWV 240935Z AUTO 16004KT 10SM OVC010 17/16 A3007 RMK AO2 T01710157
KRWV 240915Z AUTO 17005KT 10SM OVC012 17/16 A3008 RMK AO2 T01720157
KRWV 240855Z AUTO 16005KT 10SM OVC012 17/16 A3008 RMK AO2 T01720156
KRWV 240835Z AUTO 16006KT 10SM OVC012 17/16 A3008 RMK AO2 T01720156
KRWV 240815Z AUTO 17004KT 10SM BKN014 OVC019 17/16 A3008 RMK AO2 T01720156
KRWV 240755Z AUTO 17006KT 10SM OVC020 17/16 A3008 RMK AO2 T01720156
KRWV 240735Z AUTO 16007KT 10SM OVC020 17/16 A3008 RMK AO2 T01720156
KRWV 240715Z AUTO 16007KT 10SM OVC020 17/16 A3009 RMK AO2 T01730156
KRWV 240655Z AUTO 16006KT 10SM OVC018 17/16 A3009 RMK AO2 T01730156
KRWV 240635Z AUTO 17006KT 10SM BKN015 OVC021 17/15 A3009 RMK AO2 T01710155
KRWV 240610Z AUTO 15005KT 10SM BKN015 OVC021 17/15 A3009 RMK AO2 T01710153